createdAt,value
2023-04-16T00:02:42.021Z,98103.81
2023-04-16T00:05:45.006Z,98101.69
2023-04-16T00:08:47.675Z,98103.56
2023-04-16T00:11:51.883Z,98100.63
2023-04-16T00:14:54.641Z,98107.59
2023-04-16T00:17:57.721Z,98108.38
2023-04-16T00:21:00.818Z,98105.97
2023-04-16T00:24:03.482Z,98119.34
2023-04-16T00:27:07.585Z,98104.91
2023-04-16T00:30:11.159Z,98106.50
2023-04-16T00:33:13.891Z,98110.25
2023-04-16T00:36:16.615Z,98107.56
2023-04-16T00:39:19.430Z,98114.00
2023-04-16T00:42:23.732Z,98110.25
2023-04-16T00:45:26.856Z,98108.38
2023-04-16T00:48:31.750Z,98105.97
2023-04-16T00:51:36.531Z,98110.78
2023-04-16T00:54:40.116Z,98106.78
2023-04-16T00:57:44.308Z,98117.50
2023-04-16T01:00:47.007Z,98108.66
2023-04-16T01:03:51.020Z,98111.59
2023-04-16T01:06:53.926Z,98120.41
2023-04-16T01:09:56.760Z,98118.81
2023-04-16T01:13:00.857Z,98117.75
2023-04-16T01:16:03.639Z,98107.84
2023-04-16T01:19:06.500Z,98110.50
2023-04-16T01:22:10.810Z,98120.44
2023-04-16T01:25:15.833Z,98127.09
2023-04-16T01:28:18.732Z,98120.97
2023-04-16T01:31:21.381Z,98123.91
2023-04-16T01:34:24.080Z,98123.38
2023-04-16T01:37:28.213Z,98116.94
2023-04-16T01:40:31.167Z,98127.09
2023-04-16T01:43:33.832Z,98131.66
2023-04-16T01:46:36.787Z,98136.47
2023-04-16T01:49:39.545Z,98138.34
2023-04-16T01:52:43.569Z,98125.75
2023-04-16T01:55:46.324Z,98127.63
2023-04-16T01:58:49.011Z,98130.84
2023-04-16T02:01:51.762Z,98135.16
2023-04-16T02:04:54.551Z,98128.97
2023-04-16T02:07:58.489Z,98130.59
2023-04-16T02:11:01.872Z,98131.94
2023-04-16T02:14:04.592Z,98133.00
2023-04-16T02:17:07.222Z,98141.00
2023-04-16T02:20:11.167Z,98136.47
2023-04-16T02:23:15.814Z,98131.66
2023-04-16T02:26:18.486Z,98143.44
2023-04-16T02:29:22.528Z,98136.47
2023-04-16T02:32:25.296Z,98140.50
2023-04-16T02:35:28.212Z,98141.81
2023-04-16T02:38:32.179Z,98138.09
2023-04-16T02:41:34.939Z,98143.69
2023-04-16T02:44:38.037Z,98142.09
2023-04-16T02:47:40.735Z,98134.88
2023-04-16T02:50:46.171Z,98146.91
2023-04-16T02:53:50.511Z,98144.50
2023-04-16T02:56:53.171Z,98149.88
2023-04-16T02:59:55.919Z,98150.38
2023-04-16T03:02:58.660Z,98154.09
2023-04-16T03:06:01.461Z,98152.00
2023-04-16T03:09:05.484Z,98152.78
2023-04-16T03:12:08.148Z,98149.28
2023-04-16T03:15:11.716Z,98152.25
2023-04-16T03:18:14.384Z,98153.84
2023-04-16T03:21:17.035Z,98152.78
2023-04-16T03:24:21.220Z,98152.25
2023-04-16T03:27:23.844Z,98154.38
2023-04-16T03:30:26.617Z,98160.03
2023-04-16T03:33:29.251Z,98155.47
2023-04-16T03:36:32.524Z,98161.34
2023-04-16T03:39:36.558Z,98158.94
2023-04-16T03:42:40.448Z,98165.38
2023-04-16T03:45:45.450Z,98167.78
2023-04-16T03:48:48.087Z,98169.38
2023-04-16T03:51:51.143Z,98172.56
2023-04-16T03:54:55.243Z,98169.38
2023-04-16T03:57:57.853Z,98178.19
2023-04-16T04:01:00.473Z,98175.50
2023-04-16T04:04:03.503Z,98175.78
2023-04-16T04:07:06.667Z,98178.72
2023-04-16T04:10:12.650Z,98176.88
2023-04-16T04:13:15.277Z,98178.72
2023-04-16T04:16:18.397Z,98177.41
2023-04-16T04:19:21.089Z,98175.00
2023-04-16T04:22:23.771Z,98179.81
2023-04-16T04:25:28.376Z,98188.34
2023-04-16T04:28:31.445Z,98184.88
2023-04-16T04:31:34.125Z,98199.56
2023-04-16T04:34:36.909Z,98201.97
2023-04-16T04:37:39.606Z,98201.97
2023-04-16T04:40:43.802Z,98197.69
2023-04-16T04:43:46.510Z,98202.28
2023-04-16T04:46:49.235Z,98213.50
2023-04-16T04:49:51.995Z,98208.13
2023-04-16T04:52:54.712Z,98209.22
2023-04-16T04:56:09.161Z,98212.66
2023-04-16T04:59:15.418Z,98219.63
2023-04-16T05:02:18.732Z,98218.00
2023-04-16T05:05:21.709Z,98219.63
2023-04-16T05:08:24.432Z,98223.13
2023-04-16T05:11:28.529Z,98233.81
2023-04-16T05:14:31.193Z,98234.06
2023-04-16T05:17:34.029Z,98244.75
2023-04-16T05:20:37.786Z,98249.34
2023-04-16T05:23:40.489Z,98248.25
2023-04-16T05:26:44.572Z,98252.03
2023-04-16T05:29:47.235Z,98255.25
2023-04-16T05:32:49.936Z,98259.00
2023-04-16T05:35:52.643Z,98261.41
2023-04-16T05:38:55.372Z,98259.50
2023-04-16T05:41:59.450Z,98264.03
2023-04-16T05:45:03.474Z,98273.16
2023-04-16T05:48:06.518Z,98272.34
2023-04-16T05:51:09.268Z,98269.66
2023-04-16T05:54:12.009Z,98281.66
2023-04-16T05:57:17.230Z,98279.59
2023-04-16T06:00:20.062Z,98277.47
2023-04-16T06:03:22.863Z,98287.88
2023-04-16T06:06:27.321Z,98276.13
2023-04-16T06:09:30.778Z,98279.09
2023-04-16T06:12:35.291Z,98283.91
2023-04-16T06:15:38.104Z,98285.22
2023-04-16T06:18:41.083Z,98290.81
2023-04-16T06:21:44.379Z,98285.47
2023-04-16T06:24:47.260Z,98290.28
2023-04-16T06:27:51.393Z,98289.25
2023-04-16T06:30:54.128Z,98297.00
2023-04-16T06:33:57.006Z,98298.88
2023-04-16T06:36:59.768Z,98298.84
2023-04-16T06:40:02.447Z,98297.53
2023-04-16T06:43:08.348Z,98301.28
2023-04-16T06:46:11.144Z,98304.50
2023-04-16T06:49:13.839Z,98306.06
2023-04-16T06:52:16.561Z,98304.22
2023-04-16T06:55:19.328Z,98309.34
2023-04-16T06:58:23.506Z,98314.69
2023-04-16T07:01:26.813Z,98315.25
2023-04-16T07:04:29.684Z,98319.00
2023-04-16T07:07:32.429Z,98314.44
2023-04-16T07:10:35.356Z,98319.00
2023-04-16T07:13:39.419Z,98317.13
2023-04-16T07:16:42.232Z,98324.63
2023-04-16T07:19:45.446Z,98318.47
2023-04-16T07:22:48.191Z,98318.47
2023-04-16T07:25:50.940Z,98323.31
2023-04-16T07:28:54.950Z,98322.78
2023-04-16T07:31:58.337Z,98324.91
2023-04-16T07:35:01.060Z,98337.47
2023-04-16T07:38:03.802Z,98332.94
2023-04-16T07:41:06.720Z,98342.31
2023-04-16T07:44:11.012Z,98338.28
2023-04-16T07:47:13.767Z,98338.59
2023-04-16T07:50:16.712Z,98352.81
2023-04-16T07:53:19.420Z,98352.31
2023-04-16T07:56:22.327Z,98345.81
2023-04-16T07:59:26.683Z,98346.91
2023-04-16T08:02:30.073Z,98356.81
2023-04-16T08:05:32.911Z,98349.31
2023-04-16T08:08:35.641Z,98364.34
2023-04-16T08:11:38.413Z,98361.13
2023-04-16T08:14:42.553Z,98368.38
2023-04-16T08:17:45.737Z,98367.50
2023-04-16T08:20:48.501Z,98374.19
2023-04-16T08:23:51.334Z,98371.75
2023-04-16T08:26:54.068Z,98376.63
2023-04-16T08:29:58.151Z,98386.00
2023-04-16T08:33:01.206Z,98385.19
2023-04-16T08:36:03.962Z,98388.91
2023-04-16T08:39:06.692Z,98385.44
2023-04-16T08:42:19.834Z,98395.88
2023-04-16T08:45:26.890Z,98404.72
2023-04-16T08:48:33.495Z,98397.50
2023-04-16T08:51:36.707Z,98400.94
2023-04-16T08:54:47.429Z,98404.16
2023-04-16T08:58:00.747Z,98408.22
2023-04-16T09:01:06.238Z,98402.59
2023-04-16T09:04:10.111Z,98410.13
2023-04-16T09:07:13.460Z,98411.47
2023-04-16T09:10:16.631Z,98413.88
2023-04-16T09:13:20.544Z,98420.06
2023-04-16T09:16:26.454Z,98420.66
2023-04-16T09:19:29.317Z,98415.03
2023-04-16T09:22:32.049Z,98422.28
2023-04-16T09:25:35.699Z,98421.47
2023-04-16T09:28:43.485Z,98416.91
2023-04-16T09:32:03.398Z,98420.16
2023-04-16T09:35:06.582Z,98426.28
2023-04-16T09:38:09.350Z,98428.44
2023-04-16T09:41:12.411Z,98421.47
2023-04-16T09:44:15.338Z,98432.19
2023-04-16T09:47:19.379Z,98437.28
2023-04-16T09:50:22.086Z,98431.38
2023-04-16T09:53:26.040Z,98435.38
2023-04-16T09:56:30.421Z,98437.72
2023-04-16T09:59:34.338Z,98443.66
2023-04-16T10:02:41.984Z,98445.31
2023-04-16T10:05:45.151Z,98447.72
2023-04-16T10:08:50.281Z,98448.81
2023-04-16T10:11:53.449Z,98448.25
2023-04-16T10:14:56.298Z,98454.41
2023-04-16T10:18:01.072Z,98461.13
2023-04-16T10:21:04.016Z,98459.81
2023-04-16T10:24:08.175Z,98463.84
2023-04-16T10:27:12.294Z,98459.03
2023-04-16T10:30:17.939Z,98464.88
2023-04-16T10:33:24.348Z,98467.06
2023-04-16T10:36:27.619Z,98467.59
2023-04-16T10:39:30.350Z,98471.94
2023-04-16T10:42:33.603Z,98465.19
2023-04-16T10:45:39.210Z,98467.13
2023-04-16T10:48:49.758Z,98471.41
2023-04-16T10:51:55.245Z,98469.47
2023-04-16T10:55:00.368Z,98458.47
2023-04-16T10:58:03.016Z,98465.44
2023-04-16T11:01:11.926Z,98463.81
2023-04-16T11:04:38.516Z,98459.53
2023-04-16T11:07:49.883Z,98471.59
2023-04-16T11:10:53.013Z,98471.59
2023-04-16T11:13:57.722Z,98467.59
2023-04-16T11:17:04.792Z,98461.78
2023-04-16T11:20:18.855Z,98467.88
2023-04-16T11:23:23.026Z,98473.47
2023-04-16T11:26:27.079Z,98465.47
2023-04-16T11:29:29.888Z,98470.78
2023-04-16T11:32:33.735Z,98470.56
2023-04-16T11:35:39.375Z,98476.19
2023-04-16T11:38:42.969Z,98470.00
2023-04-16T11:41:47.483Z,98469.81
2023-04-16T11:44:54.107Z,98479.72
2023-04-16T11:47:57.967Z,98479.97
2023-04-16T11:51:02.302Z,98471.88
2023-04-16T11:54:05.575Z,98477.78
2023-04-16T11:57:08.291Z,98485.28
2023-04-16T12:00:14.180Z,98480.72
2023-04-16T12:03:17.622Z,98475.38
2023-04-16T12:06:24.249Z,98481.28
2023-04-16T12:09:27.514Z,98486.09
2023-04-16T12:12:32.282Z,98481.53
2023-04-16T12:15:45.246Z,98483.97
2023-04-16T12:19:01.447Z,98483.94
2023-04-16T12:22:05.505Z,98488.50
2023-04-16T12:25:11.634Z,98496.53
2023-04-16T12:28:16.463Z,98491.53
2023-04-16T12:31:20.427Z,98488.03
2023-04-16T12:34:28.873Z,98497.66
2023-04-16T12:37:47.887Z,98498.41
2023-04-16T12:40:50.722Z,98495.50
2023-04-16T12:43:53.941Z,98502.16
2023-04-16T12:46:56.592Z,98503.47
2023-04-16T12:49:59.540Z,98495.19
2023-04-16T12:53:03.672Z,98501.97
2023-04-16T12:56:06.952Z,98494.97
2023-04-16T12:59:10.488Z,98499.28
2023-04-16T13:02:13.616Z,98498.13
2023-04-16T13:05:19.069Z,98489.63
2023-04-16T13:08:23.257Z,98492.56
2023-04-16T13:11:26.078Z,98493.66
2023-04-16T13:14:28.799Z,98496.38
2023-04-16T13:17:31.828Z,98486.16
2023-04-16T13:20:34.689Z,98491.03
2023-04-16T13:23:38.839Z,98487.44
2023-04-16T13:26:42.476Z,98488.84
2023-04-16T13:29:45.220Z,98487.47
2023-04-16T13:32:47.957Z,98487.47
2023-04-16T13:35:51.352Z,98490.16
2023-04-16T13:38:55.436Z,98499.56
2023-04-16T13:41:58.208Z,98489.91
2023-04-16T13:45:01.280Z,98502.78
2023-04-16T13:48:04.258Z,98502.25
2023-04-16T13:51:08.358Z,98505.47
2023-04-16T13:54:12.743Z,98500.06
2023-04-16T13:57:15.532Z,98498.47
2023-04-16T14:00:19.653Z,98491.25
2023-04-16T14:03:22.587Z,98500.63
2023-04-16T14:06:25.922Z,98501.69
2023-04-16T14:09:30.819Z,98504.13
2023-04-16T14:12:33.609Z,98496.63
2023-04-16T14:15:36.523Z,98500.16
2023-04-16T14:18:42.153Z,98495.53
2023-04-16T14:21:44.833Z,98497.44
2023-04-16T14:24:49.120Z,98501.97
2023-04-16T14:27:52.258Z,98502.53
2023-04-16T14:30:54.925Z,98500.13
2023-04-16T14:33:57.619Z,98492.34
2023-04-16T14:37:00.321Z,98500.59
2023-04-16T14:40:08.903Z,98497.16
2023-04-16T14:43:11.706Z,98503.88
2023-04-16T14:46:17.680Z,98492.06
2023-04-16T14:49:20.705Z,98501.47
2023-04-16T14:52:23.531Z,98500.94
2023-04-16T14:55:27.631Z,98507.88
2023-04-16T14:58:30.440Z,98500.66
2023-04-16T15:01:34.657Z,98502.00
2023-04-16T15:04:37.619Z,98503.84
2023-04-16T15:07:40.508Z,98507.31
2023-04-16T15:10:45.780Z,98499.84
2023-04-16T15:13:48.484Z,98507.34
2023-04-16T15:16:51.699Z,98499.06
2023-04-16T15:19:54.634Z,98506.78
2023-04-16T15:22:57.382Z,98502.00
2023-04-16T15:26:01.584Z,98514.31
2023-04-16T15:29:04.420Z,98506.53
2023-04-16T15:32:07.940Z,98504.56
2023-04-16T15:35:11.450Z,98509.66
2023-04-16T15:38:14.354Z,98507.31
2023-04-16T15:41:18.560Z,98505.44
2023-04-16T15:44:21.347Z,98509.94
2023-04-16T15:47:24.152Z,98516.38
2023-04-16T15:50:27.343Z,98520.97
2023-04-16T15:53:29.998Z,98516.19
2023-04-16T15:56:34.205Z,98513.25
2023-04-16T15:59:36.913Z,98512.44
2023-04-16T16:02:39.882Z,98507.66
2023-04-16T16:05:42.688Z,98519.16
2023-04-16T16:08:45.404Z,98515.91
2023-04-16T16:11:49.490Z,98520.19
2023-04-16T16:14:52.187Z,98526.56
2023-04-16T16:17:55.584Z,98518.34
2023-04-16T16:20:58.460Z,98528.00
2023-04-16T16:24:01.223Z,98524.22
2023-04-16T16:27:05.368Z,98525.31
2023-04-16T16:30:09.649Z,98525.06
2023-04-16T16:33:12.766Z,98528.00
2023-04-16T16:36:15.563Z,98525.09
2023-04-16T16:39:18.248Z,98529.63
2023-04-16T16:42:22.357Z,98523.75
2023-04-16T16:45:26.097Z,98530.97
2023-04-16T16:48:28.776Z,98541.13
2023-04-16T16:51:33.569Z,98533.38
2023-04-16T16:54:36.288Z,98539.81
2023-04-16T16:57:40.515Z,98542.72
2023-04-16T17:00:43.270Z,98536.81
2023-04-16T17:03:46.160Z,98543.81
2023-04-16T17:06:49.032Z,98545.16
2023-04-16T17:09:51.716Z,98540.91
2023-04-16T17:12:55.972Z,98539.50
2023-04-16T17:15:58.643Z,98543.25
2023-04-16T17:19:01.361Z,98543.81
2023-04-16T17:22:05.078Z,98536.59
2023-04-16T17:25:08.878Z,98545.13
2023-04-16T17:28:12.973Z,98544.38
2023-04-16T17:31:16.234Z,98546.50
2023-04-16T17:34:19.548Z,98545.41
2023-04-16T17:37:22.255Z,98555.84
2023-04-16T17:40:24.927Z,98558.25
2023-04-16T17:43:29.208Z,98558.78
2023-04-16T17:46:32.008Z,98555.56
2023-04-16T17:49:34.783Z,98554.81
2023-04-16T17:52:38.173Z,98560.94
2023-04-16T17:55:42.629Z,98567.38
2023-04-16T17:58:46.743Z,98566.03
2023-04-16T18:01:49.837Z,98567.88
2023-04-16T18:04:52.753Z,98565.75
2023-04-16T18:07:56.591Z,98570.56
2023-04-16T18:10:59.327Z,98569.53
2023-04-16T18:14:03.379Z,98572.19
2023-04-16T18:17:06.745Z,98566.31
2023-04-16T18:20:11.625Z,98576.53
2023-04-16T18:23:14.404Z,98576.53
2023-04-16T18:26:20.518Z,98578.66
2023-04-16T18:29:25.641Z,98584.00
2023-04-16T18:32:31.065Z,98578.66
2023-04-16T18:35:34.186Z,98584.81
2023-04-16T18:38:41.432Z,98586.44
2023-04-16T18:41:52.256Z,98596.31
2023-04-16T18:44:56.823Z,98595.81
2023-04-16T18:47:59.610Z,98593.16
2023-04-16T18:51:02.356Z,98600.59
2023-04-16T18:54:05.311Z,98610.53
2023-04-16T18:57:08.124Z,98608.63
2023-04-16T19:00:13.550Z,98603.25
2023-04-16T19:03:16.461Z,98612.13
2023-04-16T19:06:19.321Z,98603.81
2023-04-16T19:09:22.097Z,98605.41
2023-04-16T19:12:24.982Z,98617.28
2023-04-16T19:15:31.201Z,98618.09
2023-04-16T19:18:36.047Z,98618.56
2023-04-16T19:21:39.479Z,98622.56
2023-04-16T19:24:42.241Z,98627.66
2023-04-16T19:27:45.115Z,98627.66
2023-04-16T19:30:50.930Z,98617.50
2023-04-16T19:33:53.934Z,98623.69
2023-04-16T19:36:56.712Z,98625.31
2023-04-16T19:39:59.752Z,98627.47
2023-04-16T19:43:02.438Z,98629.31
2023-04-16T19:46:06.572Z,98623.13
2023-04-16T19:49:09.714Z,98632.22
2023-04-16T19:52:12.806Z,98634.66
2023-04-16T19:55:16.352Z,98629.53
2023-04-16T19:58:19.102Z,98634.09
2023-04-16T20:01:23.369Z,98632.22
2023-04-16T20:04:26.468Z,98639.72
2023-04-16T20:07:29.670Z,98626.03
2023-04-16T20:10:32.448Z,98634.31
2023-04-16T20:13:37.683Z,98637.50
2023-04-16T20:16:43.632Z,98638.00
2023-04-16T20:19:49.594Z,98645.78
2023-04-16T20:22:52.482Z,98638.09
2023-04-16T20:25:55.223Z,98635.94
2023-04-16T20:28:58.113Z,98634.81
2023-04-16T20:32:02.199Z,98637.75
2023-04-16T20:35:10.380Z,98640.19
2023-04-16T20:38:13.335Z,98632.94
2023-04-16T20:41:21.031Z,98634.81
2023-04-16T20:44:26.177Z,98638.66
2023-04-16T20:47:30.478Z,98637.28
2023-04-16T20:50:33.383Z,98634.59
2023-04-16T20:53:37.157Z,98639.19
2023-04-16T20:56:39.778Z,98631.38
2023-04-16T20:59:42.714Z,98624.69
2023-04-16T21:02:46.979Z,98627.66
2023-04-16T21:05:50.982Z,98624.34
2023-04-16T21:08:53.692Z,98625.16
2023-04-16T21:11:56.555Z,98622.72
2023-04-16T21:14:59.398Z,98629.66
2023-04-16T21:18:03.529Z,98631.53
2023-04-16T21:21:06.651Z,98627.22
2023-04-16T21:24:09.706Z,98621.06
2023-04-16T21:27:12.814Z,98626.16
2023-04-16T21:30:16.360Z,98626.44
2023-04-16T21:33:20.527Z,98627.25
2023-04-16T21:36:26.440Z,98630.50
2023-04-16T21:39:30.908Z,98630.50
2023-04-16T21:42:33.856Z,98632.63
2023-04-16T21:45:36.713Z,98632.38
2023-04-16T21:48:40.925Z,98627.84
2023-04-16T21:51:46.031Z,98632.38
2023-04-16T21:54:48.939Z,98627.84
2023-04-16T21:57:51.655Z,98628.09
2023-04-16T22:00:54.878Z,98626.22
2023-04-16T22:03:59.113Z,98628.66
2023-04-16T22:07:03.270Z,98626.72
2023-04-16T22:10:08.701Z,98628.38
2023-04-16T22:13:12.679Z,98629.41
2023-04-16T22:16:15.692Z,98625.94
2023-04-16T22:19:21.607Z,98620.59
2023-04-16T22:22:24.596Z,98617.66
2023-04-16T22:25:27.436Z,98626.22
2023-04-16T22:28:30.172Z,98626.72
2023-04-16T22:31:33.016Z,98626.47
2023-04-16T22:34:37.140Z,98624.34
2023-04-16T22:37:40.475Z,98617.66
2023-04-16T22:40:43.254Z,98617.66
2023-04-16T22:43:45.997Z,98616.84
2023-04-16T22:46:48.835Z,98617.59
2023-04-16T22:49:53.757Z,98613.88
2023-04-16T22:52:56.676Z,98612.00
2023-04-16T22:55:59.525Z,98615.75
2023-04-16T22:59:02.284Z,98616.28
2023-04-16T23:02:05.035Z,98611.75
2023-04-16T23:05:10.470Z,98614.63
2023-04-16T23:08:13.328Z,98618.13
2023-04-16T23:11:16.351Z,98612.50
2023-04-16T23:14:19.528Z,98614.38
2023-04-16T23:17:22.183Z,98617.88
2023-04-16T23:20:26.356Z,98614.13
2023-04-16T23:23:29.271Z,98615.22
2023-04-16T23:26:32.787Z,98610.94
2023-04-16T23:29:35.512Z,98607.97
2023-04-16T23:32:38.277Z,98617.59
2023-04-16T23:35:42.412Z,98614.91
2023-04-16T23:38:45.219Z,98610.84
2023-04-16T23:41:47.954Z,98615.44
2023-04-16T23:44:50.761Z,98607.63
2023-04-16T23:47:53.560Z,98608.97
2023-04-16T23:50:57.718Z,98614.88
2023-04-16T23:54:00.549Z,98611.94
2023-04-16T23:57:03.236Z,98609.25
